Time;durP1;ratioP1;P1;durP2;ratioP2;P2;SDS_P1;SDS_P2;PMS_P1;PMS_P2;Temp;Humidity;BMP_temperature;BMP_pressure;BME280_temperature;BME280_humidity;BME280_pressure;Samples;Min_cycle;Max_cycle;Signal;HPM_P1;HPM_P2
2023/08/07 00:01:11;;;;;;;7.47;1.77;;;;;;;;;;5089464;28;20059;-57
2023/08/07 00:03:37;;;;;;;5.20;1.80;;;;;;;;;;5085418;28;20043;-58
2023/08/07 00:06:03;;;;;;;6.65;1.80;;;;;;;;;;5084750;28;20488;-57
2023/08/07 00:08:31;;;;;;;4.80;1.70;;;;;;;;;;5083504;28;20051;-58
2023/08/07 00:11:07;;;;;;;6.50;1.95;;;;;;;;;;5080633;28;20072;-58
2023/08/07 00:13:33;;;;;;;7.20;2.50;;;;;;;;;;5081402;28;20032;-58
2023/08/07 00:16:00;;;;;;;9.18;2.00;;;;;;;;;;5082746;28;20059;-58
2023/08/07 00:18:26;;;;;;;14.98;3.30;;;;;;;;;;5081437;28;20412;-58
2023/08/07 00:20:52;;;;;;;10.50;1.98;;;;;;;;;;5084598;28;20051;-58
2023/08/07 00:23:18;;;;;;;11.63;2.58;;;;;;;;;;5086086;28;20047;-58
2023/08/07 00:25:44;;;;;;;15.40;2.35;;;;;;;;;;5085669;28;20032;-58
2023/08/07 00:28:10;;;;;;;17.45;3.17;;;;;;;;;;5087337;28;20056;-58
2023/08/07 00:30:37;;;;;;;12.60;2.58;;;;;;;;;;5085221;28;20572;-58
2023/08/07 00:33:03;;;;;;;12.80;3.10;;;;;;;;;;5092663;28;20036;-58
2023/08/07 00:35:29;;;;;;;13.20;2.47;;;;;;;;;;5090372;28;20524;-58
2023/08/07 00:37:55;;;;;;;16.95;2.50;;;;;;;;;;5103277;28;20051;-58
2023/08/07 00:40:21;;;;;;;17.60;4.18;;;;;;;;;;5092180;28;20055;-58
2023/08/07 00:42:48;;;;;;;11.30;2.38;;;;;;;;;;5094953;28;20040;-57
2023/08/07 00:45:17;;;;;;;17.77;2.92;;;;;;;;;;5104798;28;20939;-58
2023/08/07 00:47:44;;;;;;;16.20;2.85;;;;;;;;;;5094066;28;20131;-58
2023/08/07 00:50:11;;;;;;;17.55;3.28;;;;;;;;;;5090664;28;20156;-58
2023/08/07 00:52:37;;;;;;;11.20;1.92;;;;;;;;;;5093018;28;20075;-58
2023/08/07 00:55:03;;;;;;;12.63;2.58;;;;;;;;;;5092352;28;20044;-58
2023/08/07 00:57:30;;;;;;;13.77;2.25;;;;;;;;;;5097687;28;20043;-58
2023/08/07 00:59:56;;;;;;;11.10;2.20;;;;;;;;;;5097474;28;20036;-58
2023/08/07 01:02:22;;;;;;;15.05;2.95;;;;;;;;;;5094606;28;20091;-58
2023/08/07 01:04:49;;;;;;;10.38;2.30;;;;;;;;;;5092442;28;20040;-58
2023/08/07 01:07:15;;;;;;;15.15;2.40;;;;;;;;;;5086656;28;20519;-58
2023/08/07 01:09:41;;;;;;;10.90;2.10;;;;;;;;;;5090532;28;20036;-58
2023/08/07 01:12:07;;;;;;;11.80;2.70;;;;;;;;;;5100760;28;20399;-58
2023/08/07 01:14:38;;;;;;;10.18;2.40;;;;;;;;;;5090567;28;20040;-58
2023/08/07 01:17:04;;;;;;;17.73;2.47;;;;;;;;;;5096705;28;20040;-58
2023/08/07 01:19:31;;;;;;;17.80;2.67;;;;;;;;;;5092774;28;20058;-58
2023/08/07 01:22:16;;;;;;;13.20;3.08;;;;;;;;;;5091412;28;20518;-58
2023/08/07 01:24:43;;;;;;;11.05;3.35;;;;;;;;;;5097034;28;20071;-58
2023/08/07 01:27:21;;;;;;;11.15;2.80;;;;;;;;;;5088916;28;20067;-58
2023/08/07 01:29:50;;;;;;;11.77;3.08;;;;;;;;;;5082228;28;20391;-58
2023/08/07 01:32:19;;;;;;;12.70;2.50;;;;;;;;;;5093140;28;20035;-58
2023/08/07 01:34:45;;;;;;;9.45;2.67;;;;;;;;;;5090493;28;20036;-58
2023/08/07 01:37:12;;;;;;;11.15;2.72;;;;;;;;;;5091335;28;20068;-58
2023/08/07 01:39:39;;;;;;;9.23;1.90;;;;;;;;;;5090896;28;20036;-58
2023/08/07 01:42:06;;;;;;;13.00;2.50;;;;;;;;;;5091566;28;20044;-58
2023/08/07 01:44:32;;;;;;;12.80;3.20;;;;;;;;;;5090815;28;20483;-58
2023/08/07 01:46:58;;;;;;;9.82;2.85;;;;;;;;;;5090988;28;20071;-58
2023/08/07 01:49:25;;;;;;;13.25;2.55;;;;;;;;;;5092912;28;20067;-58
2023/08/07 01:51:51;;;;;;;16.25;3.35;;;;;;;;;;5090451;28;20032;-58
2023/08/07 01:54:17;;;;;;;11.88;3.45;;;;;;;;;;5091601;28;20120;-58
2023/08/07 01:56:43;;;;;;;11.85;2.53;;;;;;;;;;5083272;28;20068;-58
2023/08/07 01:59:09;;;;;;;17.80;2.35;;;;;;;;;;5090097;28;20066;-58
2023/08/07 02:01:35;;;;;;;8.98;2.10;;;;;;;;;;5088134;28;20131;-58
2023/08/07 02:04:02;;;;;;;11.60;2.55;;;;;;;;;;5085463;28;20353;-58
2023/08/07 02:06:28;;;;;;;10.43;2.88;;;;;;;;;;5085500;28;20028;-58
2023/08/07 02:08:54;;;;;;;14.40;2.97;;;;;;;;;;5084124;28;20160;-58
2023/08/07 02:11:21;;;;;;;14.13;2.95;;;;;;;;;;5085464;28;20115;-59
2023/08/07 02:13:47;;;;;;;16.77;3.38;;;;;;;;;;5088930;28;20040;-58
2023/08/07 02:16:13;;;;;;;13.10;3.47;;;;;;;;;;5084530;28;20047;-58
2023/08/07 02:18:39;;;;;;;13.13;3.00;;;;;;;;;;5082927;28;20047;-58
2023/08/07 02:21:05;;;;;;;13.13;2.95;;;;;;;;;;5083225;28;20383;-58
2023/08/07 02:23:32;;;;;;;10.30;3.03;;;;;;;;;;5082101;28;20122;-58
2023/08/07 02:25:58;;;;;;;7.80;2.55;;;;;;;;;;5082768;28;20483;-58
2023/08/07 02:28:24;;;;;;;11.85;3.17;;;;;;;;;;5084540;28;20063;-58
2023/08/07 02:30:51;;;;;;;17.05;3.10;;;;;;;;;;5081360;28;20131;-57
2023/08/07 02:33:17;;;;;;;15.35;3.20;;;;;;;;;;5083942;28;20405;-58
2023/08/07 02:35:43;;;;;;;9.70;2.63;;;;;;;;;;5090590;28;20055;-58
2023/08/07 02:38:09;;;;;;;8.65;2.47;;;;;;;;;;5089569;28;20115;-57
2023/08/07 02:40:36;;;;;;;11.07;3.35;;;;;;;;;;5084660;28;20038;-58
2023/08/07 02:43:02;;;;;;;25.50;3.55;;;;;;;;;;5082303;28;20051;-58
2023/08/07 02:45:28;;;;;;;8.30;2.88;;;;;;;;;;5082821;28;20063;-58
2023/08/07 02:47:54;;;;;;;10.20;2.60;;;;;;;;;;5082981;28;20052;-58
2023/08/07 02:50:20;;;;;;;9.00;2.67;;;;;;;;;;5082436;28;20043;-58
2023/08/07 02:52:47;;;;;;;9.38;2.35;;;;;;;;;;5080653;28;20043;-58
2023/08/07 02:55:13;;;;;;;16.30;3.50;;;;;;;;;;5082541;28;20392;-59
2023/08/07 02:57:39;;;;;;;13.90;3.75;;;;;;;;;;5082390;28;20036;-58
2023/08/07 03:00:06;;;;;;;10.02;3.33;;;;;;;;;;5085513;28;20044;-58
2023/08/07 03:02:32;;;;;;;19.52;3.50;;;;;;;;;;5082947;28;20059;-58
2023/08/07 03:04:58;;;;;;;16.67;4.72;;;;;;;;;;5087921;28;20044;-58
2023/08/07 03:07:24;;;;;;;17.67;5.07;;;;;;;;;;5085864;28;20070;-58
2023/08/07 03:09:50;;;;;;;16.33;4.57;;;;;;;;;;5090709;28;20044;-58
2023/08/07 03:12:16;;;;;;;20.65;4.00;;;;;;;;;;5087882;28;20112;-58
2023/08/07 03:14:43;;;;;;;19.38;3.67;;;;;;;;;;5087440;28;20095;-58
2023/08/07 03:17:09;;;;;;;18.63;4.40;;;;;;;;;;5089830;28;20107;-58
2023/08/07 03:19:35;;;;;;;13.48;3.45;;;;;;;;;;5094813;28;20094;-58
2023/08/07 03:22:02;;;;;;;14.73;4.15;;;;;;;;;;5091251;28;20043;-58
2023/08/07 03:24:28;;;;;;;12.15;3.55;;;;;;;;;;5091149;28;20040;-58
2023/08/07 03:26:54;;;;;;;17.13;3.30;;;;;;;;;;5095196;28;20403;-59
2023/08/07 03:29:20;;;;;;;15.82;3.28;;;;;;;;;;5087937;28;20051;-58
2023/08/07 03:31:46;;;;;;;17.08;4.05;;;;;;;;;;5090394;28;20085;-58
2023/08/07 03:34:12;;;;;;;14.45;4.00;;;;;;;;;;5090701;28;20040;-58
2023/08/07 03:36:39;;;;;;;21.13;3.60;;;;;;;;;;5090509;28;20040;-58
2023/08/07 03:39:05;;;;;;;17.48;4.30;;;;;;;;;;5083085;28;20048;-58
2023/08/07 03:41:31;;;;;;;10.52;4.05;;;;;;;;;;5081376;28;20032;-58
2023/08/07 03:44:00;;;;;;;20.67;3.80;;;;;;;;;;5082285;28;20496;-57
2023/08/07 03:46:26;;;;;;;20.02;4.28;;;;;;;;;;5084164;28;20162;-58
2023/08/07 03:48:53;;;;;;;13.52;3.28;;;;;;;;;;5085227;28;20460;-58
2023/08/07 03:51:19;;;;;;;18.92;3.70;;;;;;;;;;5094137;28;20088;-58
2023/08/07 03:53:45;;;;;;;18.10;4.40;;;;;;;;;;5085239;28;20427;-58
2023/08/07 03:56:11;;;;;;;16.50;3.78;;;;;;;;;;5080360;28;20134;-58
2023/08/07 03:58:37;;;;;;;17.63;3.67;;;;;;;;;;5091302;28;20043;-58
2023/08/07 04:01:04;;;;;;;13.90;3.47;;;;;;;;;;5090685;28;20062;-58
2023/08/07 04:03:30;;;;;;;18.13;4.97;;;;;;;;;;5084987;28;20063;-58
2023/08/07 04:05:56;;;;;;;12.45;4.25;;;;;;;;;;5083991;28;20064;-58
2023/08/07 04:08:22;;;;;;;13.27;3.28;;;;;;;;;;5082954;28;20125;-58
2023/08/07 04:11:02;;;;;;;18.55;4.18;;;;;;;;;;5082164;28;20104;-58
2023/08/07 04:13:28;;;;;;;13.10;3.40;;;;;;;;;;5082130;28;20036;-57
2023/08/07 04:15:55;;;;;;;14.10;3.92;;;;;;;;;;5081702;28;20431;-58
2023/08/07 04:18:21;;;;;;;19.08;3.85;;;;;;;;;;5081673;28;20052;-58
2023/08/07 04:20:56;;;;;;;24.88;4.60;;;;;;;;;;5082465;28;20036;-58
2023/08/07 04:23:23;;;;;;;26.98;4.50;;;;;;;;;;5081110;28;20131;-57
2023/08/07 04:25:49;;;;;;;22.70;4.78;;;;;;;;;;5082304;28;20515;-58
2023/08/07 04:28:16;;;;;;;19.67;4.43;;;;;;;;;;5085487;28;20480;-58
2023/08/07 04:30:42;;;;;;;24.90;4.63;;;;;;;;;;5086283;28;20052;-58
2023/08/07 04:33:08;;;;;;;28.52;4.43;;;;;;;;;;5082571;28;20062;-58
2023/08/07 04:35:34;;;;;;;29.95;5.43;;;;;;;;;;5085366;28;20044;-58
2023/08/07 04:38:03;;;;;;;23.60;5.68;;;;;;;;;;5101970;28;20051;-58
2023/08/07 04:40:29;;;;;;;26.85;5.90;;;;;;;;;;5087441;28;20063;-58
2023/08/07 04:42:56;;;;;;;15.93;4.20;;;;;;;;;;5079914;28;20039;-58
2023/08/07 04:45:22;;;;;;;19.17;4.15;;;;;;;;;;5085484;28;20052;-58
2023/08/07 04:47:48;;;;;;;17.38;4.00;;;;;;;;;;5089543;28;20056;-58
2023/08/07 04:50:14;;;;;;;17.83;3.95;;;;;;;;;;5104349;28;20508;-58
2023/08/07 04:52:41;;;;;;;20.17;4.03;;;;;;;;;;5096978;28;20035;-58
2023/08/07 04:55:07;;;;;;;19.50;4.85;;;;;;;;;;5090697;28;20088;-58
2023/08/07 04:57:33;;;;;;;17.73;4.68;;;;;;;;;;5088870;28;20048;-58
2023/08/07 04:59:59;;;;;;;17.35;4.50;;;;;;;;;;5083410;28;20048;-58
2023/08/07 05:02:25;;;;;;;21.60;4.50;;;;;;;;;;5080327;28;20112;-58
2023/08/07 05:04:52;;;;;;;13.35;4.53;;;;;;;;;;5083826;28;20039;-58
2023/08/07 05:07:18;;;;;;;25.50;5.70;;;;;;;;;;5083401;28;20163;-58
2023/08/07 05:09:44;;;;;;;21.77;4.35;;;;;;;;;;5084440;28;20044;-58
2023/08/07 05:12:10;;;;;;;22.60;5.22;;;;;;;;;;5086120;28;20047;-58
2023/08/07 05:14:36;;;;;;;21.75;5.18;;;;;;;;;;5088478;28;20097;-58
2023/08/07 05:17:03;;;;;;;13.48;3.88;;;;;;;;;;5083918;28;20509;-59
2023/08/07 05:19:29;;;;;;;13.85;3.50;;;;;;;;;;5084680;28;20078;-59
2023/08/07 05:21:55;;;;;;;20.27;4.30;;;;;;;;;;5085170;28;20040;-58
2023/08/07 05:24:21;;;;;;;11.60;3.08;;;;;;;;;;5085599;28;20127;-58
2023/08/07 05:26:47;;;;;;;15.35;2.95;;;;;;;;;;5084712;28;20040;-61
2023/08/07 05:29:14;;;;;;;16.83;3.60;;;;;;;;;;5098253;28;20067;-58
2023/08/07 05:31:40;;;;;;;17.05;4.03;;;;;;;;;;5084093;28;20079;-58
2023/08/07 05:34:06;;;;;;;14.57;3.63;;;;;;;;;;5089597;28;20055;-58
2023/08/07 05:36:32;;;;;;;20.10;4.38;;;;;;;;;;5093159;28;20051;-58
2023/08/07 05:38:59;;;;;;;12.95;4.05;;;;;;;;;;5100894;28;20130;-57
2023/08/07 05:41:25;;;;;;;20.35;4.32;;;;;;;;;;5107024;28;20052;-58
2023/08/07 05:43:51;;;;;;;14.88;3.58;;;;;;;;;;5113736;28;20124;-58
2023/08/07 05:46:17;;;;;;;17.73;3.70;;;;;;;;;;5096247;28;20032;-58
2023/08/07 05:48:43;;;;;;;16.08;3.83;;;;;;;;;;5092091;28;20096;-58
2023/08/07 05:51:10;;;;;;;21.85;4.30;;;;;;;;;;5092726;28;20152;-58
2023/08/07 05:53:36;;;;;;;19.55;4.32;;;;;;;;;;5083281;28;20036;-57
2023/08/07 05:56:03;;;;;;;17.88;3.95;;;;;;;;;;5091508;28;20543;-57
2023/08/07 05:58:29;;;;;;;27.55;5.32;;;;;;;;;;5090374;28;20044;-57
2023/08/07 06:00:55;;;;;;;16.05;3.78;;;;;;;;;;5091337;28;20055;-58
2023/08/07 06:03:21;;;;;;;15.10;4.05;;;;;;;;;;5090807;28;20043;-57
2023/08/07 06:05:47;;;;;;;25.65;4.28;;;;;;;;;;5092129;28;20118;-58
2023/08/07 06:08:14;;;;;;;16.98;3.42;;;;;;;;;;5092137;28;20508;-58
2023/08/07 06:10:40;;;;;;;9.57;2.92;;;;;;;;;;5091983;28;20066;-58
2023/08/07 06:13:06;;;;;;;11.15;2.88;;;;;;;;;;5090283;28;20040;-58
2023/08/07 06:15:33;;;;;;;10.23;2.08;;;;;;;;;;5091969;28;20044;-57
2023/08/07 06:17:59;;;;;;;7.13;2.47;;;;;;;;;;5087177;28;20058;-58
2023/08/07 06:20:26;;;;;;;10.45;2.33;;;;;;;;;;5091658;28;20445;-58
2023/08/07 06:22:52;;;;;;;10.75;2.50;;;;;;;;;;5099788;28;20049;-58
2023/08/07 06:25:19;;;;;;;11.38;2.15;;;;;;;;;;5089834;28;20056;-59
2023/08/07 06:27:45;;;;;;;12.05;2.75;;;;;;;;;;5088712;28;20076;-59
2023/08/07 06:30:13;;;;;;;6.93;2.90;;;;;;;;;;5086488;28;20446;-58
2023/08/07 06:32:40;;;;;;;13.15;3.10;;;;;;;;;;5088083;28;20401;-58
2023/08/07 06:35:06;;;;;;;9.63;2.30;;;;;;;;;;5085711;28;21096;-58
2023/08/07 06:37:33;;;;;;;8.55;2.63;;;;;;;;;;5090061;28;20424;-58
2023/08/07 06:39:59;;;;;;;9.73;2.55;;;;;;;;;;5092183;28;20063;-59
2023/08/07 06:42:26;;;;;;;13.55;2.85;;;;;;;;;;5091977;28;20032;-59
2023/08/07 06:44:52;;;;;;;12.52;2.30;;;;;;;;;;5089147;28;20072;-59
2023/08/07 06:47:18;;;;;;;11.75;2.63;;;;;;;;;;5092761;28;20455;-59
2023/08/07 06:49:44;;;;;;;12.43;3.05;;;;;;;;;;5096157;28;20471;-59
2023/08/07 06:52:10;;;;;;;15.27;3.25;;;;;;;;;;5089416;28;20396;-59
2023/08/07 06:54:37;;;;;;;17.77;2.80;;;;;;;;;;5095835;28;20392;-59
2023/08/07 06:57:03;;;;;;;12.13;3.17;;;;;;;;;;5097051;28;20145;-58
2023/08/07 06:59:29;;;;;;;14.43;3.03;;;;;;;;;;5095182;28;20048;-59
2023/08/07 07:01:55;;;;;;;12.85;3.13;;;;;;;;;;5091948;28;20059;-59
2023/08/07 07:04:22;;;;;;;12.68;3.25;;;;;;;;;;5091677;28;20079;-59
2023/08/07 07:06:48;;;;;;;14.57;3.17;;;;;;;;;;5086209;28;20356;-58
2023/08/07 07:09:16;;;;;;;13.23;3.33;;;;;;;;;;5090181;28;20056;-59
2023/08/07 07:11:43;;;;;;;18.08;4.10;;;;;;;;;;5089003;28;20104;-59
2023/08/07 07:14:10;;;;;;;18.92;3.92;;;;;;;;;;5091288;28;20067;-59
2023/08/07 07:16:37;;;;;;;21.30;3.90;;;;;;;;;;5089121;28;20119;-59
2023/08/07 07:19:04;;;;;;;22.83;3.83;;;;;;;;;;5088655;28;20115;-59
2023/08/07 07:21:30;;;;;;;14.65;3.42;;;;;;;;;;5089245;28;20047;-59
2023/08/07 07:23:56;;;;;;;14.90;3.88;;;;;;;;;;5093636;28;20043;-59
2023/08/07 07:26:22;;;;;;;13.85;3.63;;;;;;;;;;5092946;28;20086;-59
2023/08/07 07:28:51;;;;;;;15.15;3.38;;;;;;;;;;5091291;28;20073;-59
2023/08/07 07:31:17;;;;;;;13.45;2.75;;;;;;;;;;5087266;28;20036;-59
2023/08/07 07:33:43;;;;;;;13.27;3.42;;;;;;;;;;5091085;28;20091;-59
2023/08/07 07:36:19;;;;;;;10.25;3.15;;;;;;;;;;5093376;28;20123;-59
2023/08/07 07:38:47;;;;;;;14.93;3.47;;;;;;;;;;5091869;28;20440;-59
2023/08/07 07:41:13;;;;;;;11.85;3.28;;;;;;;;;;5090778;28;20061;-59
2023/08/07 07:43:40;;;;;;;17.95;3.92;;;;;;;;;;5091112;28;20097;-59
2023/08/07 07:46:06;;;;;;;12.70;3.90;;;;;;;;;;5089706;28;20068;-59
2023/08/07 07:48:32;;;;;;;14.20;3.97;;;;;;;;;;5089908;28;20147;-59
2023/08/07 07:51:00;;;;;;;17.38;3.97;;;;;;;;;;5086785;28;20495;-59
2023/08/07 07:53:27;;;;;;;18.05;3.95;;;;;;;;;;5088810;28;20387;-59
2023/08/07 07:55:53;;;;;;;14.73;3.50;;;;;;;;;;5088051;28;20043;-60
2023/08/07 07:58:20;;;;;;;16.90;4.18;;;;;;;;;;5092154;28;20123;-59
2023/08/07 08:00:46;;;;;;;17.38;3.67;;;;;;;;;;5089163;28;20074;-59
2023/08/07 08:03:12;;;;;;;12.88;3.00;;;;;;;;;;5087069;28;20036;-59
2023/08/07 08:05:39;;;;;;;16.08;3.50;;;;;;;;;;5092818;28;20090;-59
2023/08/07 08:08:07;;;;;;;10.40;2.80;;;;;;;;;;5089241;28;20101;-59
2023/08/07 08:10:34;;;;;;;9.50;2.50;;;;;;;;;;5088317;28;20123;-59
2023/08/07 08:13:00;;;;;;;7.80;2.33;;;;;;;;;;5091657;28;20436;-59
2023/08/07 08:15:26;;;;;;;11.55;2.38;;;;;;;;;;5086671;28;20445;-59
2023/08/07 08:17:52;;;;;;;9.05;2.28;;;;;;;;;;5092958;28;20051;-59
2023/08/07 08:20:19;;;;;;;13.25;2.65;;;;;;;;;;5091661;28;20052;-59
2023/08/07 08:22:45;;;;;;;13.98;3.47;;;;;;;;;;5090456;28;20062;-59
2023/08/07 08:25:11;;;;;;;9.30;2.20;;;;;;;;;;5086911;28;20070;-59
2023/08/07 08:27:38;;;;;;;10.57;2.67;;;;;;;;;;5092469;28;20119;-59
2023/08/07 08:30:05;;;;;;;9.43;2.30;;;;;;;;;;5090790;28;20351;-59
2023/08/07 08:32:31;;;;;;;7.25;2.28;;;;;;;;;;5089524;28;20047;-59
2023/08/07 08:34:57;;;;;;;6.88;1.95;;;;;;;;;;5089953;28;20071;-59
2023/08/07 08:37:23;;;;;;;13.20;3.30;;;;;;;;;;5090108;28;20525;-59
2023/08/07 08:39:50;;;;;;;7.80;2.67;;;;;;;;;;5091179;28;20148;-59
2023/08/07 08:42:19;;;;;;;14.93;3.35;;;;;;;;;;5093399;28;20086;-59
2023/08/07 08:44:49;;;;;;;13.20;3.00;;;;;;;;;;5095978;28;20425;-59
2023/08/07 08:47:15;;;;;;;12.75;2.42;;;;;;;;;;5095669;28;20076;-59
2023/08/07 08:49:44;;;;;;;14.07;1.80;;;;;;;;;;5095786;28;20056;-59
2023/08/07 08:52:11;;;;;;;9.05;2.58;;;;;;;;;;5091074;28;20059;-59
2023/08/07 08:54:37;;;;;;;13.82;3.20;;;;;;;;;;5092777;28;20056;-59
2023/08/07 08:57:04;;;;;;;6.72;2.17;;;;;;;;;;5088468;28;20056;-58
2023/08/07 08:59:31;;;;;;;12.57;2.83;;;;;;;;;;5107699;28;20038;-58
2023/08/07 09:01:57;;;;;;;8.57;2.50;;;;;;;;;;5114605;28;20118;-58
2023/08/07 09:04:23;;;;;;;14.73;2.55;;;;;;;;;;5098656;28;20075;-58
2023/08/07 09:06:50;;;;;;;14.57;3.20;;;;;;;;;;5099465;28;20115;-58
2023/08/07 09:09:17;;;;;;;15.05;2.88;;;;;;;;;;5092816;28;20048;-58
2023/08/07 09:11:44;;;;;;;10.48;3.35;;;;;;;;;;5098948;28;20141;-58
2023/08/07 09:14:12;;;;;;;10.32;2.50;;;;;;;;;;5107016;28;20047;-58
2023/08/07 09:16:39;;;;;;;9.18;2.63;;;;;;;;;;5109350;28;20096;-58
2023/08/07 09:19:06;;;;;;;10.02;2.50;;;;;;;;;;5113335;28;20039;-58
2023/08/07 09:21:32;;;;;;;9.57;2.85;;;;;;;;;;5114047;28;20098;-58
2023/08/07 09:23:58;;;;;;;14.77;2.40;;;;;;;;;;5105561;28;20043;-59
2023/08/07 09:26:24;;;;;;;10.77;3.08;;;;;;;;;;5107291;28;20608;-59
2023/08/07 09:28:53;;;;;;;12.55;2.20;;;;;;;;;;5110636;28;20040;-59
2023/08/07 09:31:19;;;;;;;9.73;2.55;;;;;;;;;;5109550;28;20047;-59
2023/08/07 09:33:47;;;;;;;12.27;2.33;;;;;;;;;;5112522;28;20040;-58
2023/08/07 09:36:13;;;;;;;11.95;2.55;;;;;;;;;;5110608;28;20055;-59
2023/08/07 09:38:39;;;;;;;10.05;2.88;;;;;;;;;;5105768;28;20375;-59
2023/08/07 09:41:06;;;;;;;12.15;3.08;;;;;;;;;;5107318;28;20542;-59
2023/08/07 09:43:35;;;;;;;8.32;2.55;;;;;;;;;;5104425;28;20516;-59
2023/08/07 09:46:08;;;;;;;12.60;2.95;;;;;;;;;;5099449;28;20120;-59
2023/08/07 09:48:42;;;;;;;9.63;2.27;;;;;;;;;;5078635;28;20048;-59
2023/08/07 09:51:08;;;;;;;8.90;2.50;;;;;;;;;;5093187;28;20282;-59
2023/08/07 09:53:34;;;;;;;15.43;3.47;;;;;;;;;;5091482;28;20099;-59
2023/08/07 09:56:01;;;;;;;7.30;2.45;;;;;;;;;;5092860;28;20040;-59
2023/08/07 09:58:28;;;;;;;13.50;2.67;;;;;;;;;;5092434;28;20490;-59
2023/08/07 10:00:59;;;;;;;11.32;2.97;;;;;;;;;;5091675;28;20189;-59
2023/08/07 10:03:25;;;;;;;11.15;2.50;;;;;;;;;;5091099;28;20048;-59
2023/08/07 10:05:51;;;;;;;12.27;2.40;;;;;;;;;;5091315;28;20117;-59
2023/08/07 10:08:19;;;;;;;13.02;3.10;;;;;;;;;;5091658;28;20170;-59
2023/08/07 10:10:46;;;;;;;17.25;3.03;;;;;;;;;;5092925;28;20051;-59
2023/08/07 10:13:13;;;;;;;8.52;2.25;;;;;;;;;;5090001;28;20040;-59
2023/08/07 10:15:41;;;;;;;12.63;2.78;;;;;;;;;;5086521;28;20069;-59
2023/08/07 10:18:08;;;;;;;11.20;2.80;;;;;;;;;;5094736;28;20140;-59
2023/08/07 10:20:35;;;;;;;12.35;3.50;;;;;;;;;;5091746;28;20039;-59
2023/08/07 10:23:04;;;;;;;11.13;3.22;;;;;;;;;;5091640;28;20079;-59
2023/08/07 10:25:30;;;;;;;7.22;1.50;;;;;;;;;;5092505;28;20040;-59
2023/08/07 10:27:57;;;;;;;6.65;1.40;;;;;;;;;;5092071;28;20040;-59
2023/08/07 10:30:24;;;;;;;11.68;2.40;;;;;;;;;;5090953;28;20055;-59
2023/08/07 10:32:51;;;;;;;10.30;1.90;;;;;;;;;;5092425;28;20044;-60
2023/08/07 10:35:24;;;;;;;9.43;2.33;;;;;;;;;;5091654;28;20090;-59
2023/08/07 10:37:51;;;;;;;8.75;2.03;;;;;;;;;;5077571;28;20038;-59
2023/08/07 10:40:19;;;;;;;7.43;1.70;;;;;;;;;;5090703;28;20124;-59
2023/08/07 10:43:09;;;;;;;10.27;1.88;;;;;;;;;;5091387;28;20075;-59
2023/08/07 10:45:35;;;;;;;9.73;2.28;;;;;;;;;;5091746;28;20043;-59
2023/08/07 10:48:07;;;;;;;9.80;2.08;;;;;;;;;;5091632;28;20063;-59
2023/08/07 10:50:35;;;;;;;6.07;2.10;;;;;;;;;;5091256;28;20080;-59
2023/08/07 10:53:04;;;;;;;7.25;1.90;;;;;;;;;;5091443;28;20443;-59
2023/08/07 10:55:44;;;;;;;9.77;2.28;;;;;;;;;;5090618;28;20380;-59
2023/08/07 10:58:27;;;;;;;8.43;1.70;;;;;;;;;;5090564;28;20349;-59
2023/08/07 11:01:13;;;;;;;10.60;2.10;;;;;;;;;;5091837;28;20068;-60
2023/08/07 11:03:41;;;;;;;9.88;2.10;;;;;;;;;;5091520;28;20024;-59
2023/08/07 11:06:09;;;;;;;8.70;2.15;;;;;;;;;;5089082;28;20079;-59
2023/08/07 11:08:36;;;;;;;9.77;2.22;;;;;;;;;;5095550;28;20044;-60
2023/08/07 11:11:06;;;;;;;8.07;2.33;;;;;;;;;;5094140;28;20092;-59
2023/08/07 11:13:33;;;;;;;8.13;1.65;;;;;;;;;;5110751;28;20082;-59
2023/08/07 11:16:00;;;;;;;7.70;2.35;;;;;;;;;;5111927;28;20070;-59
2023/08/07 11:18:26;;;;;;;7.85;2.15;;;;;;;;;;5100855;28;20549;-59
2023/08/07 11:20:53;;;;;;;7.32;2.17;;;;;;;;;;5100962;28;20059;-59
2023/08/07 11:23:27;;;;;;;4.90;1.83;;;;;;;;;;5105963;28;20444;-59
2023/08/07 11:25:53;;;;;;;15.77;2.50;;;;;;;;;;5102138;28;20107;-59
2023/08/07 11:28:20;;;;;;;5.85;1.92;;;;;;;;;;5098752;28;20153;-60
2023/08/07 11:30:50;;;;;;;5.60;2.30;;;;;;;;;;5111727;28;20174;-60
2023/08/07 11:33:18;;;;;;;9.73;2.42;;;;;;;;;;5105215;28;20047;-60
2023/08/07 11:35:45;;;;;;;10.98;2.53;;;;;;;;;;5103626;28;20146;-59
2023/08/07 11:38:12;;;;;;;9.48;2.70;;;;;;;;;;5111353;28;20530;-59
2023/08/07 11:40:38;;;;;;;9.82;2.35;;;;;;;;;;5101434;28;20044;-59
2023/08/07 11:43:04;;;;;;;8.38;2.17;;;;;;;;;;5104922;28;20044;-59
2023/08/07 11:45:30;;;;;;;6.85;1.85;;;;;;;;;;5090980;28;20102;-59
2023/08/07 11:47:59;;;;;;;8.27;2.10;;;;;;;;;;5087380;28;20064;-59
2023/08/07 11:50:25;;;;;;;9.65;2.40;;;;;;;;;;5089885;28;20499;-59
2023/08/07 11:52:51;;;;;;;8.55;1.90;;;;;;;;;;5090938;28;20040;-59
2023/08/07 11:55:18;;;;;;;5.78;1.92;;;;;;;;;;5089493;28;20117;-59
2023/08/07 11:57:47;;;;;;;7.63;1.90;;;;;;;;;;5090998;28;20040;-59
2023/08/07 12:00:14;;;;;;;7.95;2.45;;;;;;;;;;5089408;28;20064;-59
2023/08/07 12:02:46;;;;;;;6.68;1.85;;;;;;;;;;5090556;28;20085;-59
2023/08/07 12:05:12;;;;;;;8.23;2.33;;;;;;;;;;5090731;28;20487;-59
2023/08/07 12:07:39;;;;;;;7.13;2.08;;;;;;;;;;5090203;28;20056;-59
2023/08/07 12:10:07;;;;;;;6.03;1.60;;;;;;;;;;5088194;28;20048;-59
2023/08/07 12:12:34;;;;;;;6.13;1.88;;;;;;;;;;5090780;28;20050;-59
2023/08/07 12:15:01;;;;;;;5.60;1.58;;;;;;;;;;5085401;28;20036;-59
2023/08/07 12:17:27;;;;;;;5.47;1.33;;;;;;;;;;5093148;28;20447;-60
2023/08/07 12:19:57;;;;;;;5.65;1.60;;;;;;;;;;5094930;28;20460;-59
2023/08/07 12:22:23;;;;;;;5.78;1.67;;;;;;;;;;5084057;28;20044;-59
2023/08/07 12:24:49;;;;;;;7.18;1.80;;;;;;;;;;5079184;28;20041;-59
2023/08/07 12:27:15;;;;;;;6.00;2.30;;;;;;;;;;5091391;28;20044;-59
2023/08/07 12:29:41;;;;;;;6.38;2.08;;;;;;;;;;5089973;28;20074;-59
2023/08/07 12:32:09;;;;;;;4.68;1.92;;;;;;;;;;5093547;28;21904;-59
2023/08/07 12:34:36;;;;;;;7.80;1.83;;;;;;;;;;5093672;28;20464;-59
2023/08/07 12:37:02;;;;;;;6.88;2.22;;;;;;;;;;5085007;28;20071;-59
2023/08/07 12:39:28;;;;;;;8.40;2.28;;;;;;;;;;5092302;28;20044;-59
2023/08/07 12:41:55;;;;;;;9.57;2.47;;;;;;;;;;5091747;28;20559;-60
2023/08/07 12:44:21;;;;;;;7.45;2.10;;;;;;;;;;5093418;28;20040;-59
2023/08/07 12:46:48;;;;;;;7.53;3.13;;;;;;;;;;5091868;28;20044;-60
2023/08/07 12:49:15;;;;;;;9.05;2.55;;;;;;;;;;5093424;28;20060;-60
2023/08/07 12:51:41;;;;;;;7.25;2.40;;;;;;;;;;5092187;28;20039;-59
2023/08/07 12:54:08;;;;;;;6.07;2.50;;;;;;;;;;5084961;28;20107;-59
2023/08/07 12:56:34;;;;;;;7.53;2.33;;;;;;;;;;5090638;28;20115;-60
2023/08/07 12:59:00;;;;;;;10.25;2.50;;;;;;;;;;5084429;28;20111;-59
2023/08/07 13:01:27;;;;;;;10.57;2.92;;;;;;;;;;5091939;28;20135;-59
2023/08/07 13:03:53;;;;;;;9.68;2.75;;;;;;;;;;5091231;28;20028;-59
2023/08/07 13:06:19;;;;;;;9.68;2.70;;;;;;;;;;5096965;28;20444;-60
2023/08/07 13:08:46;;;;;;;12.20;3.20;;;;;;;;;;5093650;28;20463;-60
2023/08/07 13:11:12;;;;;;;8.27;2.60;;;;;;;;;;5090517;28;20036;-59
2023/08/07 13:13:38;;;;;;;10.07;2.83;;;;;;;;;;5090531;28;20090;-59
2023/08/07 13:16:04;;;;;;;8.50;2.58;;;;;;;;;;5091649;28;20044;-59
2023/08/07 13:18:31;;;;;;;7.85;2.50;;;;;;;;;;5087544;28;20043;-59
2023/08/07 13:20:57;;;;;;;6.07;2.00;;;;;;;;;;5092385;28;20075;-59
2023/08/07 13:23:23;;;;;;;6.85;2.22;;;;;;;;;;5082901;28;20072;-59
2023/08/07 13:25:49;;;;;;;7.82;2.30;;;;;;;;;;5089938;28;20052;-59
2023/08/07 13:28:17;;;;;;;9.32;2.25;;;;;;;;;;5091328;28;20055;-59
2023/08/07 13:30:44;;;;;;;7.95;1.90;;;;;;;;;;5093280;28;20044;-59
2023/08/07 13:33:10;;;;;;;6.50;2.00;;;;;;;;;;5092187;28;20458;-59
2023/08/07 13:35:37;;;;;;;8.60;2.28;;;;;;;;;;5093021;28;20043;-59
2023/08/07 13:38:05;;;;;;;8.43;2.40;;;;;;;;;;5093545;28;20048;-59
2023/08/07 13:40:32;;;;;;;6.10;1.98;;;;;;;;;;5092458;28;20075;-59
2023/08/07 13:42:59;;;;;;;6.32;1.98;;;;;;;;;;5091600;28;20084;-59
2023/08/07 13:45:25;;;;;;;11.18;2.08;;;;;;;;;;5091284;28;20052;-59
2023/08/07 13:47:51;;;;;;;8.85;1.98;;;;;;;;;;5080430;28;20044;-60
2023/08/07 13:50:17;;;;;;;12.05;2.80;;;;;;;;;;5092548;28;20437;-60
2023/08/07 13:52:43;;;;;;;9.73;1.98;;;;;;;;;;5087958;28;20032;-59
2023/08/07 13:55:09;;;;;;;9.02;2.10;;;;;;;;;;5091000;28;20123;-59
2023/08/07 13:57:36;;;;;;;7.28;1.90;;;;;;;;;;5090216;28;20048;-59
2023/08/07 14:00:02;;;;;;;10.13;2.00;;;;;;;;;;5083157;28;20121;-59
2023/08/07 14:02:30;;;;;;;8.70;2.30;;;;;;;;;;5089197;28;20044;-59
2023/08/07 14:04:57;;;;;;;7.65;1.88;;;;;;;;;;5092090;28;20051;-59
2023/08/07 14:07:23;;;;;;;6.03;1.85;;;;;;;;;;5088464;28;20452;-59
2023/08/07 14:09:49;;;;;;;6.00;1.67;;;;;;;;;;5090593;28;20036;-59
2023/08/07 14:12:15;;;;;;;7.05;1.85;;;;;;;;;;5092088;28;20111;-59
2023/08/07 14:14:41;;;;;;;6.30;2.15;;;;;;;;;;5088267;28;20051;-59
2023/08/07 14:17:08;;;;;;;8.30;2.58;;;;;;;;;;5089260;28;20036;-59
2023/08/07 14:19:34;;;;;;;8.02;2.40;;;;;;;;;;5089942;28;20092;-59
2023/08/07 14:22:00;;;;;;;5.00;1.58;;;;;;;;;;5088935;28;20071;-59
2023/08/07 14:24:27;;;;;;;9.27;1.70;;;;;;;;;;5087662;28;20036;-59
2023/08/07 14:26:53;;;;;;;7.28;2.17;;;;;;;;;;5089960;28;20134;-60
2023/08/07 14:29:19;;;;;;;9.27;2.05;;;;;;;;;;5083375;28;20070;-60
2023/08/07 14:31:46;;;;;;;7.10;1.90;;;;;;;;;;5085977;28;20044;-59
2023/08/07 14:34:12;;;;;;;5.13;1.50;;;;;;;;;;5094467;28;20088;-60